sensor_id;sensor_type;location;lat;lon;timestamp;pressure;altitude;pressure_sealevel;temperature;humidity
6194;BME280;3130;41.564;23.280;2022-12-17T00:00:48;99006.34;;;14.19;100.00
6194;BME280;3130;41.564;23.280;2022-12-17T00:03:34;99000.06;;;14.10;100.00
6194;BME280;3130;41.564;23.280;2022-12-17T00:06:19;99012.50;;;14.16;100.00
6194;BME280;3130;41.564;23.280;2022-12-17T00:09:05;99019.75;;;14.11;100.00
6194;BME280;3130;41.564;23.280;2022-12-17T00:11:50;99016.16;;;14.14;100.00
6194;BME280;3130;41.564;23.280;2022-12-17T00:14:35;99014.81;;;14.08;100.00
6194;BME280;3130;41.564;23.280;2022-12-17T00:17:19;99014.31;;;14.04;100.00
6194;BME280;3130;41.564;23.280;2022-12-17T00:20:06;98999.63;;;13.93;100.00
6194;BME280;3130;41.564;23.280;2022-12-17T00:22:57;99016.19;;;14.02;100.00
6194;BME280;3130;41.564;23.280;2022-12-17T00:25:41;99025.91;;;13.98;100.00
6194;BME280;3130;41.564;23.280;2022-12-17T00:28:26;99028.47;;;13.98;100.00
6194;BME280;3130;41.564;23.280;2022-12-17T00:31:13;99018.97;;;13.99;100.00
6194;BME280;3130;41.564;23.280;2022-12-17T00:33:57;99016.81;;;14.05;100.00
6194;BME280;3130;41.564;23.280;2022-12-17T00:36:43;99002.34;;;14.03;100.00
6194;BME280;3130;41.564;23.280;2022-12-17T00:39:27;99013.03;;;14.09;100.00
6194;BME280;3130;41.564;23.280;2022-12-17T00:42:12;99008.09;;;14.06;100.00
6194;BME280;3130;41.564;23.280;2022-12-17T00:44:56;99002.72;;;14.09;100.00
6194;BME280;3130;41.564;23.280;2022-12-17T00:47:41;98995.66;;;14.00;100.00
6194;BME280;3130;41.564;23.280;2022-12-17T00:50:25;98980.75;;;13.93;100.00
6194;BME280;3130;41.564;23.280;2022-12-17T00:53:11;98993.97;;;14.11;100.00
6194;BME280;3130;41.564;23.280;2022-12-17T00:55:56;98992.19;;;14.12;100.00
6194;BME280;3130;41.564;23.280;2022-12-17T00:58:40;98999.94;;;14.12;100.00
6194;BME280;3130;41.564;23.280;2022-12-17T01:01:25;98992.94;;;14.14;100.00
6194;BME280;3130;41.564;23.280;2022-12-17T01:04:09;98973.50;;;13.98;100.00
6194;BME280;3130;41.564;23.280;2022-12-17T01:06:54;98987.38;;;14.07;100.00
6194;BME280;3130;41.564;23.280;2022-12-17T01:09:40;98986.72;;;14.16;100.00
6194;BME280;3130;41.564;23.280;2022-12-17T01:12:24;98986.84;;;14.15;100.00
6194;BME280;3130;41.564;23.280;2022-12-17T01:15:08;98964.16;;;13.97;100.00
6194;BME280;3130;41.564;23.280;2022-12-17T01:17:53;98980.63;;;14.17;100.00
6194;BME280;3130;41.564;23.280;2022-12-17T01:20:37;98953.28;;;14.04;100.00
6194;BME280;3130;41.564;23.280;2022-12-17T01:23:25;98924.09;;;13.80;100.00
6194;BME280;3130;41.564;23.280;2022-12-17T01:26:14;98971.69;;;14.10;100.00
6194;BME280;3130;41.564;23.280;2022-12-17T01:28:58;98975.06;;;14.11;100.00
6194;BME280;3130;41.564;23.280;2022-12-17T01:31:43;98961.19;;;14.13;100.00
6194;BME280;3130;41.564;23.280;2022-12-17T01:34:27;98962.00;;;14.14;100.00
6194;BME280;3130;41.564;23.280;2022-12-17T01:37:11;98954.66;;;14.08;100.00
6194;BME280;3130;41.564;23.280;2022-12-17T01:39:56;98960.53;;;14.10;100.00
6194;BME280;3130;41.564;23.280;2022-12-17T01:42:53;98952.94;;;14.08;100.00
6194;BME280;3130;41.564;23.280;2022-12-17T01:45:41;98954.91;;;14.05;100.00
6194;BME280;3130;41.564;23.280;2022-12-17T01:48:30;98953.03;;;14.07;100.00
6194;BME280;3130;41.564;23.280;2022-12-17T01:51:17;98974.16;;;14.12;100.00
6194;BME280;3130;41.564;23.280;2022-12-17T01:54:03;98958.78;;;14.10;100.00
6194;BME280;3130;41.564;23.280;2022-12-17T01:56:48;98956.28;;;13.98;100.00
6194;BME280;3130;41.564;23.280;2022-12-17T01:59:40;98953.16;;;14.06;100.00
6194;BME280;3130;41.564;23.280;2022-12-17T02:02:26;98956.88;;;14.02;100.00
6194;BME280;3130;41.564;23.280;2022-12-17T02:05:22;98950.78;;;14.03;100.00
6194;BME280;3130;41.564;23.280;2022-12-17T02:08:32;98951.94;;;13.99;100.00
6194;BME280;3130;41.564;23.280;2022-12-17T02:11:25;98958.16;;;13.96;100.00
6194;BME280;3130;41.564;23.280;2022-12-17T02:14:19;98952.13;;;13.85;100.00
6194;BME280;3130;41.564;23.280;2022-12-17T02:17:10;98957.56;;;13.93;100.00
6194;BME280;3130;41.564;23.280;2022-12-17T02:20:16;98843.97;;;13.14;100.00
6194;BME280;3130;41.564;23.280;2022-12-17T02:23:11;98971.09;;;13.84;100.00
6194;BME280;3130;41.564;23.280;2022-12-17T02:26:01;98957.13;;;13.75;100.00
6194;BME280;3130;41.564;23.280;2022-12-17T02:28:50;98929.75;;;13.62;100.00
6194;BME280;3130;41.564;23.280;2022-12-17T02:31:36;98949.84;;;13.69;100.00
6194;BME280;3130;41.564;23.280;2022-12-17T02:34:21;98940.78;;;13.64;100.00
6194;BME280;3130;41.564;23.280;2022-12-17T02:37:05;98949.88;;;13.57;100.00
6194;BME280;3130;41.564;23.280;2022-12-17T02:39:50;98948.34;;;13.54;100.00
6194;BME280;3130;41.564;23.280;2022-12-17T02:42:35;98949.56;;;13.38;100.00
6194;BME280;3130;41.564;23.280;2022-12-17T02:45:21;98948.31;;;13.31;100.00
6194;BME280;3130;41.564;23.280;2022-12-17T02:48:07;98947.34;;;13.21;100.00
6194;BME280;3130;41.564;23.280;2022-12-17T02:50:53;98924.41;;;13.06;100.00
6194;BME280;3130;41.564;23.280;2022-12-17T02:53:41;98932.81;;;13.20;100.00
6194;BME280;3130;41.564;23.280;2022-12-17T02:56:34;98938.03;;;13.31;100.00
6194;BME280;3130;41.564;23.280;2022-12-17T02:59:19;98917.72;;;13.39;100.00
6194;BME280;3130;41.564;23.280;2022-12-17T03:02:14;98927.63;;;13.56;100.00
6194;BME280;3130;41.564;23.280;2022-12-17T03:04:58;98924.94;;;13.57;100.00
6194;BME280;3130;41.564;23.280;2022-12-17T03:07:43;98936.56;;;13.63;100.00
6194;BME280;3130;41.564;23.280;2022-12-17T03:10:30;98926.75;;;13.68;100.00
6194;BME280;3130;41.564;23.280;2022-12-17T03:13:21;98905.25;;;13.56;100.00
6194;BME280;3130;41.564;23.280;2022-12-17T03:16:08;98927.75;;;13.78;100.00
6194;BME280;3130;41.564;23.280;2022-12-17T03:18:54;98915.53;;;13.80;100.00
6194;BME280;3130;41.564;23.280;2022-12-17T03:21:39;98922.03;;;13.85;100.00
6194;BME280;3130;41.564;23.280;2022-12-17T03:24:23;98916.88;;;13.85;100.00
6194;BME280;3130;41.564;23.280;2022-12-17T03:27:08;98918.19;;;13.91;100.00
6194;BME280;3130;41.564;23.280;2022-12-17T03:29:52;98887.88;;;13.71;100.00
6194;BME280;3130;41.564;23.280;2022-12-17T03:32:36;98930.84;;;13.94;100.00
6194;BME280;3130;41.564;23.280;2022-12-17T03:35:23;98929.19;;;13.93;100.00
6194;BME280;3130;41.564;23.280;2022-12-17T03:38:08;98922.41;;;13.92;100.00
6194;BME280;3130;41.564;23.280;2022-12-17T03:40:52;98928.63;;;14.00;100.00
6194;BME280;3130;41.564;23.280;2022-12-17T03:43:37;98913.16;;;14.00;100.00
6194;BME280;3130;41.564;23.280;2022-12-17T03:46:21;98922.97;;;13.95;100.00
6194;BME280;3130;41.564;23.280;2022-12-17T03:49:06;98917.25;;;13.92;100.00
6194;BME280;3130;41.564;23.280;2022-12-17T03:52:06;98798.91;;;13.20;100.00
6194;BME280;3130;41.564;23.280;2022-12-17T03:54:51;98907.50;;;13.84;100.00
6194;BME280;3130;41.564;23.280;2022-12-17T03:57:35;98923.91;;;13.83;100.00
6194;BME280;3130;41.564;23.280;2022-12-17T04:00:19;98914.50;;;13.82;100.00
6194;BME280;3130;41.564;23.280;2022-12-17T04:03:03;98925.03;;;13.79;100.00
6194;BME280;3130;41.564;23.280;2022-12-17T04:05:48;98901.47;;;13.73;100.00
6194;BME280;3130;41.564;23.280;2022-12-17T04:08:34;98917.31;;;13.79;100.00
6194;BME280;3130;41.564;23.280;2022-12-17T04:11:18;98905.13;;;13.81;100.00
6194;BME280;3130;41.564;23.280;2022-12-17T04:14:02;98908.78;;;13.79;100.00
6194;BME280;3130;41.564;23.280;2022-12-17T04:16:47;98912.38;;;13.76;100.00
6194;BME280;3130;41.564;23.280;2022-12-17T04:19:31;98919.06;;;13.79;100.00
6194;BME280;3130;41.564;23.280;2022-12-17T04:22:16;98910.50;;;13.78;100.00
6194;BME280;3130;41.564;23.280;2022-12-17T04:25:02;98897.41;;;13.81;100.00
6194;BME280;3130;41.564;23.280;2022-12-17T04:27:46;98901.50;;;13.84;100.00
6194;BME280;3130;41.564;23.280;2022-12-17T04:30:30;98906.88;;;13.81;100.00
6194;BME280;3130;41.564;23.280;2022-12-17T04:33:15;98895.16;;;13.77;100.00
6194;BME280;3130;41.564;23.280;2022-12-17T04:35:59;98900.19;;;13.78;100.00
6194;BME280;3130;41.564;23.280;2022-12-17T04:38:44;98899.41;;;13.78;100.00
6194;BME280;3130;41.564;23.280;2022-12-17T04:41:30;98894.44;;;13.75;100.00
6194;BME280;3130;41.564;23.280;2022-12-17T04:44:14;98896.91;;;13.76;100.00
6194;BME280;3130;41.564;23.280;2022-12-17T04:46:59;98886.81;;;13.73;100.00
6194;BME280;3130;41.564;23.280;2022-12-17T04:49:43;98899.69;;;13.73;100.00
6194;BME280;3130;41.564;23.280;2022-12-17T04:52:27;98913.78;;;13.80;100.00
6194;BME280;3130;41.564;23.280;2022-12-17T04:55:11;98901.13;;;13.77;100.00
6194;BME280;3130;41.564;23.280;2022-12-17T04:58:01;98892.59;;;13.77;100.00
6194;BME280;3130;41.564;23.280;2022-12-17T05:00:46;98885.56;;;13.79;100.00
6194;BME280;3130;41.564;23.280;2022-12-17T05:03:30;98857.91;;;13.81;100.00
6194;BME280;3130;41.564;23.280;2022-12-17T05:06:15;98856.16;;;13.81;100.00
6194;BME280;3130;41.564;23.280;2022-12-17T05:08:59;98864.81;;;13.80;100.00
6194;BME280;3130;41.564;23.280;2022-12-17T05:11:44;98875.84;;;13.82;100.00
6194;BME280;3130;41.564;23.280;2022-12-17T05:14:30;98892.50;;;13.89;100.00
6194;BME280;3130;41.564;23.280;2022-12-17T05:17:14;98886.31;;;13.92;100.00
6194;BME280;3130;41.564;23.280;2022-12-17T05:19:58;98883.03;;;13.90;100.00
6194;BME280;3130;41.564;23.280;2022-12-17T05:22:42;98891.47;;;13.92;100.00
6194;BME280;3130;41.564;23.280;2022-12-17T05:25:27;98894.75;;;13.94;100.00
6194;BME280;3130;41.564;23.280;2022-12-17T05:28:12;98893.69;;;13.96;100.00
6194;BME280;3130;41.564;23.280;2022-12-17T05:30:58;98881.72;;;13.84;100.00
6194;BME280;3130;41.564;23.280;2022-12-17T05:33:43;98906.94;;;14.03;100.00
6194;BME280;3130;41.564;23.280;2022-12-17T05:36:28;98775.41;;;13.24;100.00
6194;BME280;3130;41.564;23.280;2022-12-17T05:39:13;98905.94;;;14.05;100.00
6194;BME280;3130;41.564;23.280;2022-12-17T05:41:57;98886.66;;;13.87;100.00
6194;BME280;3130;41.564;23.280;2022-12-17T05:44:42;98919.44;;;14.19;100.00
6194;BME280;3130;41.564;23.280;2022-12-17T05:47:28;98920.88;;;14.23;100.00
6194;BME280;3130;41.564;23.280;2022-12-17T05:50:12;98923.00;;;14.29;100.00
6194;BME280;3130;41.564;23.280;2022-12-17T05:53:00;98934.41;;;14.38;100.00
6194;BME280;3130;41.564;23.280;2022-12-17T05:55:48;98956.69;;;14.50;100.00
6194;BME280;3130;41.564;23.280;2022-12-17T05:58:32;98962.91;;;14.58;100.00
6194;BME280;3130;41.564;23.280;2022-12-17T06:01:16;98963.41;;;14.63;100.00
6194;BME280;3130;41.564;23.280;2022-12-17T06:04:02;98845.44;;;13.98;99.95
6194;BME280;3130;41.564;23.280;2022-12-17T06:06:47;98943.56;;;14.64;99.79
6194;BME280;3130;41.564;23.280;2022-12-17T06:09:31;98957.31;;;14.75;99.47
6194;BME280;3130;41.564;23.280;2022-12-17T06:12:16;98975.97;;;14.79;99.24
6194;BME280;3130;41.564;23.280;2022-12-17T06:15:00;98981.25;;;14.77;99.42
6194;BME280;3130;41.564;23.280;2022-12-17T06:17:51;98945.78;;;14.68;98.59
6194;BME280;3130;41.564;23.280;2022-12-17T06:20:37;98949.66;;;14.63;98.20
6194;BME280;3130;41.564;23.280;2022-12-17T06:23:22;98969.63;;;14.83;97.95
6194;BME280;3130;41.564;23.280;2022-12-17T06:26:06;98965.75;;;14.88;97.15
6194;BME280;3130;41.564;23.280;2022-12-17T06:28:51;98960.25;;;14.93;97.16
6194;BME280;3130;41.564;23.280;2022-12-17T06:31:43;98949.91;;;14.82;97.31
6194;BME280;3130;41.564;23.280;2022-12-17T06:34:27;98957.09;;;15.00;96.68
6194;BME280;3130;41.564;23.280;2022-12-17T06:37:13;98941.47;;;14.91;96.40
6194;BME280;3130;41.564;23.280;2022-12-17T06:40:12;98919.03;;;14.91;96.27
6194;BME280;3130;41.564;23.280;2022-12-17T06:42:57;98928.78;;;14.99;95.84
6194;BME280;3130;41.564;23.280;2022-12-17T06:45:41;98968.09;;;15.24;95.53
6194;BME280;3130;41.564;23.280;2022-12-17T06:48:26;98946.88;;;15.10;95.44
6194;BME280;3130;41.564;23.280;2022-12-17T06:51:13;98985.38;;;15.34;94.69
6194;BME280;3130;41.564;23.280;2022-12-17T06:53:59;98974.47;;;15.31;94.04
6194;BME280;3130;41.564;23.280;2022-12-17T06:56:43;98981.94;;;15.45;93.80
6194;BME280;3130;41.564;23.280;2022-12-17T06:59:28;98976.88;;;15.54;93.30
6194;BME280;3130;41.564;23.280;2022-12-17T07:02:12;98968.97;;;15.67;92.96
6194;BME280;3130;41.564;23.280;2022-12-17T07:04:56;98980.22;;;15.77;92.81
6194;BME280;3130;41.564;23.280;2022-12-17T07:07:43;98999.97;;;15.89;92.34
6194;BME280;3130;41.564;23.280;2022-12-17T07:10:29;99012.59;;;16.03;91.43
6194;BME280;3130;41.564;23.280;2022-12-17T07:13:13;99019.84;;;16.09;91.11
6194;BME280;3130;41.564;23.280;2022-12-17T07:15:57;99044.66;;;16.11;90.79
6194;BME280;3130;41.564;23.280;2022-12-17T07:18:42;99040.44;;;16.10;91.06
6194;BME280;3130;41.564;23.280;2022-12-17T07:21:26;99032.78;;;16.09;91.36
6194;BME280;3130;41.564;23.280;2022-12-17T07:24:11;99019.41;;;16.04;91.12
6194;BME280;3130;41.564;23.280;2022-12-17T07:26:57;99010.88;;;15.92;91.12
6194;BME280;3130;41.564;23.280;2022-12-17T07:29:41;99045.06;;;16.07;91.58
6194;BME280;3130;41.564;23.280;2022-12-17T07:32:25;99036.84;;;15.91;91.90
6194;BME280;3130;41.564;23.280;2022-12-17T07:35:20;99035.91;;;15.92;91.91
6194;BME280;3130;41.564;23.280;2022-12-17T07:38:05;99017.25;;;15.77;91.93
6194;BME280;3130;41.564;23.280;2022-12-17T07:41:02;98994.47;;;15.71;92.17
6194;BME280;3130;41.564;23.280;2022-12-17T07:43:48;99056.44;;;16.04;91.43
6194;BME280;3130;41.564;23.280;2022-12-17T07:46:32;99046.50;;;15.89;91.77
6194;BME280;3130;41.564;23.280;2022-12-17T07:49:16;99055.16;;;15.99;92.04
6194;BME280;3130;41.564;23.280;2022-12-17T07:52:01;99025.69;;;15.90;92.34
6194;BME280;3130;41.564;23.280;2022-12-17T07:54:46;99053.47;;;16.09;92.44
6194;BME280;3130;41.564;23.280;2022-12-17T07:57:30;99051.16;;;16.06;91.84
6194;BME280;3130;41.564;23.280;2022-12-17T08:00:16;99043.03;;;15.99;92.13
6194;BME280;3130;41.564;23.280;2022-12-17T08:03:01;99044.44;;;16.03;92.17
6194;BME280;3130;41.564;23.280;2022-12-17T08:05:45;99036.91;;;16.11;92.22
6194;BME280;3130;41.564;23.280;2022-12-17T08:08:29;99047.34;;;16.20;92.20
6194;BME280;3130;41.564;23.280;2022-12-17T08:11:13;99057.44;;;16.34;92.17
6194;BME280;3130;41.564;23.280;2022-12-17T08:13:57;99034.53;;;16.50;91.34
6194;BME280;3130;41.564;23.280;2022-12-17T08:16:43;99049.09;;;17.13;90.26
6194;BME280;3130;41.564;23.280;2022-12-17T08:19:36;99036.06;;;17.53;86.75
6194;BME280;3130;41.564;23.280;2022-12-17T08:22:20;99034.06;;;17.76;85.69
6194;BME280;3130;41.564;23.280;2022-12-17T08:25:05;99026.44;;;17.74;85.55
6194;BME280;3130;41.564;23.280;2022-12-17T08:27:54;99024.69;;;18.03;85.31
6194;BME280;3130;41.564;23.280;2022-12-17T08:30:39;99015.44;;;18.29;84.71
6194;BME280;3130;41.564;23.280;2022-12-17T08:33:24;99012.28;;;18.25;83.66
6194;BME280;3130;41.564;23.280;2022-12-17T08:36:05;98990.84;;;18.23;83.62
6194;BME280;3130;41.564;23.280;2022-12-17T08:38:50;99003.28;;;18.39;83.38
6194;BME280;3130;41.564;23.280;2022-12-17T08:41:34;99005.44;;;18.43;82.34
6194;BME280;3130;41.564;23.280;2022-12-17T08:44:19;98971.84;;;18.14;82.65
6194;BME280;3130;41.564;23.280;2022-12-17T08:47:04;99014.34;;;18.50;83.14
6194;BME280;3130;41.564;23.280;2022-12-17T08:49:50;98999.81;;;18.57;82.75
6194;BME280;3130;41.564;23.280;2022-12-17T08:52:34;98993.00;;;18.37;81.24
6194;BME280;3130;41.564;23.280;2022-12-17T08:55:18;99004.63;;;18.15;81.93
6194;BME280;3130;41.564;23.280;2022-12-17T08:58:02;99000.78;;;17.90;82.74
6194;BME280;3130;41.564;23.280;2022-12-17T09:00:47;98993.78;;;17.81;84.05
6194;BME280;3130;41.564;23.280;2022-12-17T09:03:31;98981.09;;;17.78;83.85
6194;BME280;3130;41.564;23.280;2022-12-17T09:06:17;98951.84;;;17.57;84.56
6194;BME280;3130;41.564;23.280;2022-12-17T09:09:02;98971.94;;;17.55;84.51
6194;BME280;3130;41.564;23.280;2022-12-17T09:11:46;98992.53;;;17.66;84.93
6194;BME280;3130;41.564;23.280;2022-12-17T09:14:31;98987.78;;;17.62;84.48
6194;BME280;3130;41.564;23.280;2022-12-17T09:17:15;98983.78;;;17.58;84.76
6194;BME280;3130;41.564;23.280;2022-12-17T09:19:59;98968.63;;;17.53;85.29
6194;BME280;3130;41.564;23.280;2022-12-17T09:22:47;98980.78;;;17.53;86.16
6194;BME280;3130;41.564;23.280;2022-12-17T09:25:32;98975.72;;;17.51;86.91
6194;BME280;3130;41.564;23.280;2022-12-17T09:28:17;98962.47;;;17.45;86.88
6194;BME280;3130;41.564;23.280;2022-12-17T09:31:01;98957.28;;;17.35;87.34
6194;BME280;3130;41.564;23.280;2022-12-17T09:33:46;98973.19;;;17.31;87.98
6194;BME280;3130;41.564;23.280;2022-12-17T09:36:32;98972.13;;;17.33;88.48
6194;BME280;3130;41.564;23.280;2022-12-17T09:39:18;98953.94;;;17.24;88.64
6194;BME280;3130;41.564;23.280;2022-12-17T09:42:10;98973.38;;;17.39;88.36
6194;BME280;3130;41.564;23.280;2022-12-17T09:45:03;98997.19;;;17.63;87.44
6194;BME280;3130;41.564;23.280;2022-12-17T09:47:57;98972.06;;;17.73;86.46
6194;BME280;3130;41.564;23.280;2022-12-17T09:50:49;98958.84;;;17.95;86.05
6194;BME280;3130;41.564;23.280;2022-12-17T09:53:36;98974.97;;;18.17;84.46
6194;BME280;3130;41.564;23.280;2022-12-17T09:56:26;98973.47;;;18.43;83.43
6194;BME280;3130;41.564;23.280;2022-12-17T09:59:18;98961.00;;;18.65;82.64
6194;BME280;3130;41.564;23.280;2022-12-17T10:02:11;98958.84;;;18.88;81.32
6194;BME280;3130;41.564;23.280;2022-12-17T10:04:56;98961.66;;;19.04;79.97
6194;BME280;3130;41.564;23.280;2022-12-17T10:07:42;98947.69;;;19.14;79.95
6194;BME280;3130;41.564;23.280;2022-12-17T10:10:31;98952.13;;;19.31;79.02
6194;BME280;3130;41.564;23.280;2022-12-17T10:13:19;98948.28;;;19.35;78.30
6194;BME280;3130;41.564;23.280;2022-12-17T10:16:19;98941.66;;;19.40;78.50
6194;BME280;3130;41.564;23.280;2022-12-17T10:19:04;98929.41;;;19.33;77.55
6194;BME280;3130;41.564;23.280;2022-12-17T10:21:49;98944.38;;;19.48;77.37
6194;BME280;3130;41.564;23.280;2022-12-17T10:24:43;98952.41;;;19.55;77.18
6194;BME280;3130;41.564;23.280;2022-12-17T10:27:28;98946.09;;;19.57;76.69
6194;BME280;3130;41.564;23.280;2022-12-17T10:30:17;98941.63;;;19.50;75.76
6194;BME280;3130;41.564;23.280;2022-12-17T10:33:04;98930.06;;;19.35;74.31
6194;BME280;3130;41.564;23.280;2022-12-17T10:35:49;98917.34;;;19.32;74.38
6194;BME280;3130;41.564;23.280;2022-12-17T10:38:34;98936.50;;;19.58;74.09
6194;BME280;3130;41.564;23.280;2022-12-17T10:41:20;98933.09;;;19.75;72.87
6194;BME280;3130;41.564;23.280;2022-12-17T10:44:19;98929.31;;;19.87;72.34
6194;BME280;3130;41.564;23.280;2022-12-17T10:47:10;98939.13;;;19.93;71.62
6194;BME280;3130;41.564;23.280;2022-12-17T10:49:59;98937.50;;;19.92;71.85
6194;BME280;3130;41.564;23.280;2022-12-17T10:52:45;98937.16;;;19.95;72.27
6194;BME280;3130;41.564;23.280;2022-12-17T10:55:31;98932.88;;;20.03;70.44
6194;BME280;3130;41.564;23.280;2022-12-17T10:58:19;98944.34;;;19.93;70.24
6194;BME280;3130;41.564;23.280;2022-12-17T11:01:06;98944.75;;;19.88;71.01
6194;BME280;3130;41.564;23.280;2022-12-17T11:03:55;98942.09;;;19.80;70.94
6194;BME280;3130;41.564;23.280;2022-12-17T11:06:42;98912.41;;;19.56;71.03
6194;BME280;3130;41.564;23.280;2022-12-17T11:09:33;98939.34;;;19.64;71.60
6194;BME280;3130;41.564;23.280;2022-12-17T11:12:29;98941.31;;;19.53;71.84
6194;BME280;3130;41.564;23.280;2022-12-17T11:15:22;98872.78;;;19.00;72.94
6194;BME280;3130;41.564;23.280;2022-12-17T11:18:17;98940.56;;;19.16;73.67
6194;BME280;3130;41.564;23.280;2022-12-17T11:21:07;98951.00;;;19.07;74.66
6194;BME280;3130;41.564;23.280;2022-12-17T11:23:54;98944.72;;;19.00;75.08
6194;BME280;3130;41.564;23.280;2022-12-17T11:26:41;98936.63;;;19.03;75.95
6194;BME280;3130;41.564;23.280;2022-12-17T11:29:27;98931.41;;;19.12;76.09
6194;BME280;3130;41.564;23.280;2022-12-17T11:32:40;98920.91;;;19.31;75.53
6194;BME280;3130;41.564;23.280;2022-12-17T11:35:30;98919.38;;;19.55;75.15
6194;BME280;3130;41.564;23.280;2022-12-17T11:38:30;98918.13;;;19.77;74.64
6194;BME280;3130;41.564;23.280;2022-12-17T11:41:22;98916.66;;;19.92;73.53
6194;BME280;3130;41.564;23.280;2022-12-17T11:44:16;98900.16;;;19.66;73.07
6194;BME280;3130;41.564;23.280;2022-12-17T11:47:11;98923.13;;;19.88;73.25
6194;BME280;3130;41.564;23.280;2022-12-17T11:50:08;98928.34;;;20.05;72.78
6194;BME280;3130;41.564;23.280;2022-12-17T11:53:13;98909.53;;;20.11;71.57
6194;BME280;3130;41.564;23.280;2022-12-17T11:56:05;98903.72;;;20.17;71.40
6194;BME280;3130;41.564;23.280;2022-12-17T11:58:57;98926.72;;;20.47;70.73
6194;BME280;3130;41.564;23.280;2022-12-17T12:01:48;98902.31;;;20.30;70.36
6194;BME280;3130;41.564;23.280;2022-12-17T12:04:53;98893.31;;;20.00;71.61
6194;BME280;3130;41.564;23.280;2022-12-17T12:07:55;98903.72;;;20.00;72.38
6194;BME280;3130;41.564;23.280;2022-12-17T12:10:49;98877.69;;;20.00;72.43
6194;BME280;3130;41.564;23.280;2022-12-17T12:13:43;98905.59;;;20.32;71.80
6194;BME280;3130;41.564;23.280;2022-12-17T12:16:34;98906.16;;;20.44;71.17
6194;BME280;3130;41.564;23.280;2022-12-17T12:19:28;98895.84;;;20.34;70.84
6194;BME280;3130;41.564;23.280;2022-12-17T12:22:19;98865.69;;;19.89;71.72
6194;BME280;3130;41.564;23.280;2022-12-17T12:25:25;98891.06;;;19.87;72.57
6194;BME280;3130;41.564;23.280;2022-12-17T12:28:21;98867.13;;;19.84;72.89
6194;BME280;3130;41.564;23.280;2022-12-17T12:31:24;98884.22;;;19.86;73.37
6194;BME280;3130;41.564;23.280;2022-12-17T12:34:22;98887.28;;;19.82;74.12
6194;BME280;3130;41.564;23.280;2022-12-17T12:37:12;98887.72;;;19.77;73.60
6194;BME280;3130;41.564;23.280;2022-12-17T12:40:01;98894.19;;;19.73;73.55
6194;BME280;3130;41.564;23.280;2022-12-17T12:42:52;98871.75;;;19.55;74.34
6194;BME280;3130;41.564;23.280;2022-12-17T12:45:44;98904.63;;;19.56;74.34
6194;BME280;3130;41.564;23.280;2022-12-17T12:48:40;98910.50;;;19.31;74.79
6194;BME280;3130;41.564;23.280;2022-12-17T12:51:27;98905.25;;;19.23;76.12
6194;BME280;3130;41.564;23.280;2022-12-17T12:54:25;98895.94;;;19.11;76.84
6194;BME280;3130;41.564;23.280;2022-12-17T12:57:30;98890.56;;;18.95;77.12
6194;BME280;3130;41.564;23.280;2022-12-17T13:00:28;98890.94;;;18.73;78.22
6194;BME280;3130;41.564;23.280;2022-12-17T13:03:28;98897.09;;;18.72;78.65
6194;BME280;3130;41.564;23.280;2022-12-17T13:06:38;98899.59;;;18.64;78.91
6194;BME280;3130;41.564;23.280;2022-12-17T13:09:20;98877.22;;;18.54;78.91
6194;BME280;3130;41.564;23.280;2022-12-17T13:11:49;98889.22;;;18.64;79.15
6194;BME280;3130;41.564;23.280;2022-12-17T13:14:22;98818.41;;;18.26;79.02
6194;BME280;3130;41.564;23.280;2022-12-17T13:16:52;98891.63;;;18.75;78.79
6194;BME280;3130;41.564;23.280;2022-12-17T13:19:37;98902.28;;;18.72;79.08
6194;BME280;3130;41.564;23.280;2022-12-17T13:22:27;98905.19;;;18.69;79.28
6194;BME280;3130;41.564;23.280;2022-12-17T13:24:56;98889.06;;;18.66;79.69
6194;BME280;3130;41.564;23.280;2022-12-17T13:27:38;98895.09;;;18.66;79.84
6194;BME280;3130;41.564;23.280;2022-12-17T13:30:30;98886.88;;;18.61;80.27
6194;BME280;3130;41.564;23.280;2022-12-17T13:33:19;98896.75;;;18.58;80.54
6194;BME280;3130;41.564;23.280;2022-12-17T13:35:57;98896.69;;;18.31;81.10
6194;BME280;3130;41.564;23.280;2022-12-17T13:38:39;98937.13;;;18.43;81.45
6194;BME280;3130;41.564;23.280;2022-12-17T13:41:11;98880.31;;;17.93;81.83
6194;BME280;3130;41.564;23.280;2022-12-17T13:43:43;98918.00;;;18.06;82.19
6194;BME280;3130;41.564;23.280;2022-12-17T13:46:18;99016.53;;;18.45;82.15
6194;BME280;3130;41.564;23.280;2022-12-17T13:48:54;99048.09;;;18.31;82.08
6194;BME280;3130;41.564;23.280;2022-12-17T13:51:23;99066.13;;;18.33;82.27
6194;BME280;3130;41.564;23.280;2022-12-17T13:53:54;99086.78;;;18.34;82.80
6194;BME280;3130;41.564;23.280;2022-12-17T13:56:22;99050.13;;;18.09;83.67
6194;BME280;3130;41.564;23.280;2022-12-17T13:58:52;99065.00;;;18.17;84.47
6194;BME280;3130;41.564;23.280;2022-12-17T14:01:19;99037.38;;;17.97;85.93
6194;BME280;3130;41.564;23.280;2022-12-17T14:03:51;99023.44;;;17.79;89.39
6194;BME280;3130;41.564;23.280;2022-12-17T14:06:20;98992.75;;;17.44;91.58
6194;BME280;3130;41.564;23.280;2022-12-17T14:08:49;98970.28;;;17.24;93.85
6194;BME280;3130;41.564;23.280;2022-12-17T14:11:19;98977.34;;;17.13;96.90
6194;BME280;3130;41.564;23.280;2022-12-17T14:14:09;98973.09;;;17.03;98.22
6194;BME280;3130;41.564;23.280;2022-12-17T14:16:39;98928.94;;;16.74;99.39
6194;BME280;3130;41.564;23.280;2022-12-17T14:19:08;98916.53;;;16.48;99.75
6194;BME280;3130;41.564;23.280;2022-12-17T14:21:36;98977.38;;;16.63;100.00
6194;BME280;3130;41.564;23.280;2022-12-17T14:24:04;99018.94;;;16.82;100.00
6194;BME280;3130;41.564;23.280;2022-12-17T14:26:33;98991.09;;;16.74;100.00
6194;BME280;3130;41.564;23.280;2022-12-17T14:29:00;99001.50;;;16.84;100.00
6194;BME280;3130;41.564;23.280;2022-12-17T14:31:27;98943.16;;;16.39;100.00
6194;BME280;3130;41.564;23.280;2022-12-17T14:34:02;99002.88;;;16.67;100.00
6194;BME280;3130;41.564;23.280;2022-12-17T14:36:34;99037.47;;;16.77;100.00
6194;BME280;3130;41.564;23.280;2022-12-17T14:39:16;98997.13;;;16.43;100.00
6194;BME280;3130;41.564;23.280;2022-12-17T14:41:45;98961.19;;;16.29;100.00
6194;BME280;3130;41.564;23.280;2022-12-17T14:44:30;99013.00;;;16.50;100.00